Time;durP1;ratioP1;P1;durP2;ratioP2;P2;SDS_P1;SDS_P2;PMS_P1;PMS_P2;Temp;Humidity;BMP_temperature;BMP_pressure;BME280_temperature;BME280_humidity;BME280_pressure;Samples;Min_cycle;Max_cycle;Signal;HPM_P1;HPM_P2
2023/03/01 00:01:24;;;;;;;32.72;16.23;;;-0.30;99.90;;;;;;5010171;28;20033;-72
2023/03/01 00:03:51;;;;;;;35.28;16.20;;;-0.30;99.90;;;;;;5010305;28;20030;-72
2023/03/01 00:06:17;;;;;;;32.35;16.40;;;-0.30;99.90;;;;;;5008435;28;20092;-72
2023/03/01 00:08:43;;;;;;;31.70;15.65;;;-0.30;99.90;;;;;;5006723;28;20038;-72
2023/03/01 00:11:18;;;;;;;35.03;16.38;;;-0.30;99.90;;;;;;5011571;28;20025;-72
2023/03/01 00:13:44;;;;;;;29.45;14.18;;;-0.40;99.90;;;;;;5008684;28;20148;-71
2023/03/01 00:16:19;;;;;;;33.42;14.45;;;-0.30;99.90;;;;;;5010068;28;20041;-72
2023/03/01 00:18:45;;;;;;;32.90;14.25;;;-0.40;99.90;;;;;;5010334;28;20072;-71
2023/03/01 00:21:11;;;;;;;32.05;16.52;;;-0.40;99.90;;;;;;5011884;28;20124;-72
2023/03/01 00:23:37;;;;;;;32.10;16.33;;;-0.40;99.90;;;;;;5010553;28;20033;-71
2023/03/01 00:26:07;;;;;;;32.88;16.80;;;-0.50;99.90;;;;;;5012969;28;20026;-71
2023/03/01 00:28:33;;;;;;;37.00;17.10;;;-0.50;99.90;;;;;;5012312;28;20026;-72
2023/03/01 00:31:07;;;;;;;30.58;16.17;;;-0.40;99.90;;;;;;5010169;28;20038;-71
2023/03/01 00:33:33;;;;;;;37.97;15.23;;;-0.40;99.90;;;;;;5010851;28;20033;-71
2023/03/01 00:35:59;;;;;;;35.28;15.63;;;-0.50;99.90;;;;;;5010686;28;20089;-71
2023/03/01 00:38:25;;;;;;;30.38;15.32;;;-0.40;99.90;;;;;;5008508;28;20038;-71
2023/03/01 00:40:51;;;;;;;35.58;16.85;;;-0.40;99.90;;;;;;5010949;28;20033;-72
2023/03/01 00:43:17;;;;;;;28.92;14.55;;;-0.50;99.90;;;;;;5008441;28;20104;-71
2023/03/01 00:45:42;;;;;;;32.72;15.02;;;-0.50;99.90;;;;;;5008531;28;20061;-72
2023/03/01 00:48:08;;;;;;;30.63;14.70;;;-0.50;99.90;;;;;;5006118;28;20525;-72
2023/03/01 00:50:33;;;;;;;30.20;13.60;;;-0.40;99.90;;;;;;5007574;28;20080;-72
2023/03/01 00:52:59;;;;;;;34.78;14.60;;;-0.50;99.90;;;;;;5010004;28;20045;-72
2023/03/01 00:55:25;;;;;;;28.55;14.63;;;-0.60;99.90;;;;;;5009551;28;20026;-72
2023/03/01 00:57:51;;;;;;;26.45;14.23;;;-0.60;99.90;;;;;;5011046;28;20025;-72
2023/03/01 01:00:18;;;;;;;27.52;14.57;;;-0.70;99.90;;;;;;5009204;28;20092;-72
2023/03/01 01:02:43;;;;;;;33.15;16.10;;;-0.70;99.90;;;;;;5007790;28;20049;-72
2023/03/01 01:05:09;;;;;;;29.38;15.25;;;-0.70;99.90;;;;;;5008657;28;20060;-71
2023/03/01 01:07:35;;;;;;;28.30;15.65;;;-0.80;99.90;;;;;;5008850;28;20026;-72
2023/03/01 01:10:01;;;;;;;32.30;15.60;;;-0.80;99.90;;;;;;5006149;28;20039;-72
2023/03/01 01:12:26;;;;;;;31.50;15.50;;;-0.80;99.90;;;;;;5007888;28;20033;-71
2023/03/01 01:14:52;;;;;;;30.95;14.65;;;-0.80;99.90;;;;;;5007746;28;20038;-72
2023/03/01 01:17:17;;;;;;;33.72;16.10;;;-0.80;99.90;;;;;;5004717;28;20041;-71
2023/03/01 01:19:43;;;;;;;28.98;16.10;;;-0.80;99.90;;;;;;5007677;28;20060;-72
2023/03/01 01:22:09;;;;;;;31.60;15.82;;;-0.80;99.90;;;;;;5007777;28;20064;-71
2023/03/01 01:24:35;;;;;;;26.83;14.30;;;-0.80;99.90;;;;;;5006800;28;20176;-72
2023/03/01 01:27:00;;;;;;;28.40;14.48;;;-0.80;99.90;;;;;;5007430;28;20453;-72
2023/03/01 01:29:26;;;;;;;28.60;14.50;;;-0.80;99.90;;;;;;5009011;28;20098;-71
2023/03/01 01:31:51;;;;;;;26.73;13.45;;;-0.80;99.90;;;;;;5008221;28;20088;-71
2023/03/01 01:34:20;;;;;;;28.83;13.75;;;-0.80;99.90;;;;;;5006438;28;20038;-71
2023/03/01 01:36:56;;;;;;;23.98;13.07;;;-0.80;99.90;;;;;;5006781;28;20041;-71
2023/03/01 01:39:22;;;;;;;27.67;14.65;;;-0.80;99.90;;;;;;5004080;28;20108;-71
2023/03/01 01:41:48;;;;;;;30.77;14.38;;;-0.70;99.90;;;;;;5011814;28;20054;-71
2023/03/01 01:44:19;;;;;;;25.67;12.88;;;-0.70;99.90;;;;;;5010404;28;20053;-71
2023/03/01 01:47:01;;;;;;;29.80;14.05;;;-0.70;99.90;;;;;;5009912;28;20042;-71
2023/03/01 01:49:47;;;;;;;32.20;14.77;;;-0.60;99.90;;;;;;5002685;28;20030;-71
2023/03/01 01:52:31;;;;;;;25.30;13.68;;;-0.60;99.90;;;;;;5005240;28;20030;-71
2023/03/01 01:55:02;;;;;;;29.60;13.18;;;-0.50;99.90;;;;;;5007228;28;20474;-71
2023/03/01 01:57:40;;;;;;;28.05;12.90;;;-0.50;99.90;;;;;;5007455;28;20034;-71
2023/03/01 02:00:27;;;;;;;26.85;13.30;;;-0.40;99.90;;;;;;5008527;28;20071;-71
2023/03/01 02:03:00;;;;;;;25.70;14.25;;;-0.40;99.90;;;;;;5007338;28;20034;-71
2023/03/01 02:06:04;;;;;;;31.08;15.07;;;-0.40;99.90;;;;;;5006510;28;20047;-71
2023/03/01 02:08:35;;;;;;;31.53;14.77;;;-0.30;99.90;;;;;;5007728;28;20564;-71
2023/03/01 02:11:01;;;;;;;24.60;12.77;;;-0.30;99.90;;;;;;5006114;28;20295;-71
2023/03/01 02:13:27;;;;;;;26.73;13.57;;;-0.30;99.90;;;;;;5006908;28;20118;-71
2023/03/01 02:15:53;;;;;;;29.05;13.80;;;-0.20;99.90;;;;;;5005081;28;20026;-71
2023/03/01 02:18:21;;;;;;;26.75;14.30;;;-0.20;99.90;;;;;;5002265;28;20037;-71
2023/03/01 02:21:11;;;;;;;26.15;12.60;;;-0.20;99.90;;;;;;5006370;28;20056;-71
2023/03/01 02:23:38;;;;;;;27.88;14.20;;;-0.20;99.90;;;;;;5004759;28;20060;-71
2023/03/01 02:26:22;;;;;;;29.10;13.45;;;-0.10;99.90;;;;;;5006775;28;20080;-72
2023/03/01 02:28:48;;;;;;;30.30;14.63;;;-0.10;99.90;;;;;;5003703;28;20057;-72
2023/03/01 02:34:04;;;;;;;26.02;13.55;;;-0.10;99.90;;;;;;5006579;28;20053;-71
2023/03/01 02:36:35;;;;;;;27.83;13.88;;;-0.10;99.90;;;;;;5004181;28;20506;-72
2023/03/01 02:39:04;;;;;;;27.88;14.43;;;-0.10;99.90;;;;;;4997265;28;20034;-70
2023/03/01 02:41:35;;;;;;;29.30;14.48;;;-0.10;99.90;;;;;;5003325;28;20451;-71
2023/03/01 02:44:01;;;;;;;27.13;14.55;;;-0.20;99.90;;;;;;5008331;28;20040;-71
2023/03/01 02:46:27;;;;;;;25.45;13.80;;;-0.20;99.90;;;;;;5007670;28;20033;-70
2023/03/01 02:48:56;;;;;;;29.80;14.98;;;-0.20;99.90;;;;;;5005903;28;20101;-71
2023/03/01 02:51:48;;;;;;;29.27;14.50;;;-0.30;99.90;;;;;;5011457;28;20040;-70
2023/03/01 02:54:31;;;;;;;27.63;14.52;;;-0.20;99.90;;;;;;5012722;28;20534;-71
2023/03/01 02:56:59;;;;;;;27.52;13.57;;;-0.30;99.90;;;;;;5013027;28;20057;-71
2023/03/01 02:59:30;;;;;;;27.33;14.05;;;-0.30;99.90;;;;;;5012573;28;20081;-71
2023/03/01 03:01:56;;;;;;;30.25;14.73;;;-0.20;99.90;;;;;;5009474;28;20026;-71
2023/03/01 03:04:21;;;;;;;28.35;13.85;;;-0.10;99.90;;;;;;5009691;28;20022;-71
2023/03/01 03:06:49;;;;;;;29.85;14.68;;;-0.10;99.90;;;;;;5005588;28;20030;-71
2023/03/01 03:09:16;;;;;;;26.92;13.45;;;-0.10;99.90;;;;;;5029784;23;20632;-75
2023/03/01 03:11:42;;;;;;;23.73;12.65;;;-0.10;99.90;;;;;;5002141;28;20034;-76
2023/03/01 03:14:12;;;;;;;28.33;13.55;;;-0.10;99.90;;;;;;5005757;28;20496;-76
2023/03/01 03:16:48;;;;;;;30.67;15.60;;;-0.30;99.90;;;;;;5006235;28;20050;-76
2023/03/01 03:19:14;;;;;;;26.50;12.68;;;-0.20;99.90;;;;;;5004802;28;20034;-75
2023/03/01 03:21:40;;;;;;;25.35;12.95;;;-0.30;99.90;;;;;;5005329;28;20040;-74
2023/03/01 03:24:05;;;;;;;23.15;12.07;;;-0.30;99.90;;;;;;5008416;28;20470;-75
2023/03/01 03:26:32;;;;;;;28.92;14.00;;;-0.30;99.90;;;;;;5007799;28;20034;-75
2023/03/01 03:28:57;;;;;;;27.17;14.35;;;-0.30;99.90;;;;;;5008538;28;20433;-74
2023/03/01 03:31:23;;;;;;;31.58;15.52;;;-0.30;99.90;;;;;;5006247;28;20030;-73
2023/03/01 03:33:49;;;;;;;30.38;14.98;;;-0.20;99.90;;;;;;5011062;28;20030;-75
2023/03/01 03:36:19;;;;;;;29.27;13.75;;;-0.30;99.90;;;;;;5007467;28;20083;-75
2023/03/01 03:38:46;;;;;;;25.45;14.38;;;-0.30;99.90;;;;;;5005527;28;20506;-75
2023/03/01 03:41:12;;;;;;;26.20;13.15;;;-0.30;99.90;;;;;;5008420;28;20025;-76
2023/03/01 03:43:40;;;;;;;27.85;14.40;;;-0.30;99.90;;;;;;5006595;28;20040;-76
2023/03/01 03:46:06;;;;;;;27.63;14.63;;;-0.40;99.90;;;;;;5019265;28;20076;-75
2023/03/01 03:48:38;;;;;;;28.55;13.88;;;-0.40;99.90;;;;;;5014441;28;20036;-76
2023/03/01 03:51:07;;;;;;;30.10;14.98;;;-0.40;99.90;;;;;;5011168;28;20022;-75
2023/03/01 03:53:33;;;;;;;25.48;13.18;;;-0.40;99.90;;;;;;5009496;28;20034;-76
2023/03/01 03:55:59;;;;;;;26.73;14.23;;;-0.40;99.90;;;;;;5008032;28;20050;-76
2023/03/01 03:58:25;;;;;;;27.33;14.18;;;-0.40;99.90;;;;;;5010585;28;20030;-76
2023/03/01 04:00:56;;;;;;;27.52;14.18;;;-0.40;99.90;;;;;;5013780;28;20104;-76
2023/03/01 04:03:24;;;;;;;26.17;13.70;;;-0.40;99.90;;;;;;5006803;28;20018;-76
2023/03/01 04:05:50;;;;;;;24.58;13.38;;;-0.50;99.90;;;;;;5017937;28;20030;-76
2023/03/01 04:08:19;;;;;;;31.85;14.35;;;-0.50;99.90;;;;;;5003139;28;20395;-76
2023/03/01 04:10:47;;;;;;;30.60;15.10;;;-0.50;99.90;;;;;;5005964;28;20041;-77
2023/03/01 04:13:15;;;;;;;30.65;14.23;;;-0.50;99.90;;;;;;5005253;28;20383;-75
2023/03/01 04:15:42;;;;;;;30.13;14.52;;;-0.50;99.90;;;;;;5006829;28;20029;-74
2023/03/01 04:18:11;;;;;;;28.25;14.38;;;-0.60;99.90;;;;;;5008384;28;20386;-76
2023/03/01 04:20:37;;;;;;;27.75;14.18;;;-0.50;99.90;;;;;;5005901;28;20113;-74
2023/03/01 04:23:20;;;;;;;29.00;14.38;;;-0.60;99.90;;;;;;5006104;28;20117;-75
2023/03/01 04:25:54;;;;;;;27.45;14.23;;;-0.50;99.90;;;;;;5022808;28;20034;-76
2023/03/01 04:28:27;;;;;;;25.67;13.75;;;-0.50;99.90;;;;;;5007887;28;20046;-76
2023/03/01 04:30:55;;;;;;;30.98;14.43;;;-0.50;99.90;;;;;;5012025;28;20029;-76
2023/03/01 04:33:21;;;;;;;29.90;14.02;;;-0.50;99.90;;;;;;5009180;28;20048;-76
2023/03/01 04:35:50;;;;;;;30.15;14.10;;;-0.50;99.90;;;;;;5005243;28;20026;-76
2023/03/01 04:38:17;;;;;;;26.23;14.23;;;-0.50;99.90;;;;;;5003574;28;20081;-76
2023/03/01 04:40:43;;;;;;;26.02;13.18;;;-0.50;99.90;;;;;;5015124;28;20073;-75
2023/03/01 04:43:10;;;;;;;26.67;14.73;;;-0.50;99.90;;;;;;5011958;28;20065;-76
2023/03/01 04:45:36;;;;;;;25.23;14.05;;;-0.50;99.90;;;;;;5006185;28;20030;-71
2023/03/01 04:48:02;;;;;;;25.05;13.68;;;-0.40;99.90;;;;;;5007567;28;20502;-76
2023/03/01 04:50:29;;;;;;;34.35;16.02;;;-0.40;99.90;;;;;;5005851;28;20121;-74
2023/03/01 04:52:58;;;;;;;28.67;14.30;;;-0.40;99.90;;;;;;5008201;28;20030;-75
2023/03/01 04:55:25;;;;;;;28.15;14.05;;;-0.40;99.90;;;;;;5006860;28;20116;-75
2023/03/01 04:57:51;;;;;;;30.80;13.50;;;-0.30;99.90;;;;;;5003772;28;20032;-76
2023/03/01 05:00:19;;;;;;;32.03;15.25;;;-0.30;99.90;;;;;;5003767;28;20022;-75
2023/03/01 05:02:52;;;;;;;29.17;14.05;;;-0.30;99.90;;;;;;5005007;28;20042;-75
2023/03/01 05:05:25;;;;;;;31.23;15.82;;;-0.30;99.90;;;;;;5005838;28;20030;-75
2023/03/01 05:07:55;;;;;;;28.00;13.63;;;-0.30;99.90;;;;;;5005976;28;20026;-75
2023/03/01 05:10:20;;;;;;;28.25;14.80;;;-0.30;99.90;;;;;;5008013;28;20061;-75
2023/03/01 05:12:46;;;;;;;30.23;15.75;;;-0.40;99.90;;;;;;5006176;28;20069;-75
2023/03/01 05:15:12;;;;;;;28.25;14.40;;;-0.30;99.90;;;;;;5007808;28;20030;-75
2023/03/01 05:17:38;;;;;;;27.42;14.40;;;-0.30;99.90;;;;;;5016919;28;20028;-73
2023/03/01 05:20:08;;;;;;;30.63;14.38;;;-0.30;99.90;;;;;;5008334;28;20049;-73
2023/03/01 05:22:34;;;;;;;28.30;14.65;;;-0.30;99.90;;;;;;5004159;28;20860;-75
2023/03/01 05:25:00;;;;;;;33.08;15.70;;;-0.30;99.90;;;;;;5008045;28;20498;-75
2023/03/01 05:27:25;;;;;;;30.10;15.75;;;-0.40;99.90;;;;;;5007630;28;20026;-71
2023/03/01 05:29:51;;;;;;;27.70;13.80;;;-0.40;99.90;;;;;;5008166;28;20463;-75
2023/03/01 05:32:17;;;;;;;31.23;14.35;;;-0.40;99.90;;;;;;5005455;28;20038;-75
2023/03/01 05:34:42;;;;;;;30.40;14.75;;;-0.40;99.90;;;;;;5005308;28;20118;-75
2023/03/01 05:37:08;;;;;;;29.10;14.25;;;-0.40;99.90;;;;;;5007918;28;20033;-75
2023/03/01 05:39:34;;;;;;;29.25;15.30;;;-0.30;99.90;;;;;;5005740;28;20048;-73
2023/03/01 05:42:01;;;;;;;31.15;14.68;;;-0.40;99.90;;;;;;5007705;28;20022;-73
2023/03/01 05:44:28;;;;;;;36.03;15.98;;;-0.40;99.90;;;;;;5006413;28;20053;-75
2023/03/01 05:46:54;;;;;;;35.03;15.00;;;-0.40;99.90;;;;;;5008562;28;20337;-76
2023/03/01 05:49:23;;;;;;;36.05;16.52;;;-0.40;99.90;;;;;;5005355;28;20121;-74
2023/03/01 05:51:51;;;;;;;29.75;15.65;;;-0.40;99.90;;;;;;5005143;28;20041;-75
2023/03/01 05:54:18;;;;;;;30.33;14.77;;;-0.40;99.90;;;;;;5006242;28;20434;-75
2023/03/01 05:56:44;;;;;;;29.20;14.65;;;-0.40;99.90;;;;;;5006195;28;20100;-73
2023/03/01 05:59:11;;;;;;;29.42;15.02;;;-0.40;99.90;;;;;;5001686;28;20487;-74
2023/03/01 06:01:37;;;;;;;27.60;14.50;;;-0.40;99.90;;;;;;5005992;28;20041;-72
2023/03/01 06:04:04;;;;;;;31.48;15.00;;;-0.40;99.90;;;;;;5008779;28;20018;-75
2023/03/01 06:06:33;;;;;;;32.55;16.10;;;-0.30;99.90;;;;;;5005829;28;20037;-75
2023/03/01 06:08:58;;;;;;;36.30;16.67;;;-0.40;99.90;;;;;;5003872;28;20034;-75
2023/03/01 06:11:24;;;;;;;32.10;14.90;;;-0.40;99.90;;;;;;5007788;28;20176;-74
2023/03/01 06:13:49;;;;;;;30.08;15.88;;;-0.40;99.90;;;;;;5004545;28;20037;-74
2023/03/01 06:16:15;;;;;;;34.78;16.52;;;-0.30;99.90;;;;;;5000002;28;20036;-74
2023/03/01 06:18:41;;;;;;;32.58;15.45;;;-0.30;99.90;;;;;;5007058;28;20108;-74
2023/03/01 06:21:07;;;;;;;33.05;15.73;;;-0.30;99.90;;;;;;5006344;28;20073;-74
2023/03/01 06:23:33;;;;;;;32.33;15.52;;;-0.30;99.90;;;;;;5004947;28;20045;-74
2023/03/01 06:25:59;;;;;;;31.45;15.48;;;-0.40;99.90;;;;;;5008980;28;20022;-75
2023/03/01 06:28:24;;;;;;;31.02;15.35;;;-0.40;99.90;;;;;;5005414;28;20034;-73
2023/03/01 06:30:51;;;;;;;34.00;15.00;;;-0.40;99.90;;;;;;5005936;28;20033;-73
2023/03/01 06:33:19;;;;;;;32.08;15.38;;;-0.30;99.90;;;;;;5003783;28;20030;-74
2023/03/01 06:35:48;;;;;;;33.72;16.55;;;-0.30;99.90;;;;;;5007436;28;20045;-75
2023/03/01 06:38:18;;;;;;;37.55;17.08;;;-0.30;99.90;;;;;;5003345;28;20045;-74
2023/03/01 06:40:45;;;;;;;35.65;15.88;;;-0.30;99.90;;;;;;5004017;28;20014;-75
2023/03/01 06:43:10;;;;;;;35.50;15.82;;;-0.30;99.90;;;;;;5005826;28;20061;-73
2023/03/01 06:45:37;;;;;;;31.92;15.57;;;-0.40;99.90;;;;;;4997850;28;20034;-73
2023/03/01 06:48:07;;;;;;;34.65;15.40;;;-0.40;99.90;;;;;;5008936;28;20124;-71
2023/03/01 06:50:34;;;;;;;34.42;15.95;;;-0.40;99.90;;;;;;5008322;28;20076;-73
2023/03/01 06:53:00;;;;;;;34.53;16.75;;;-0.40;99.90;;;;;;5001065;28;20370;-75
2023/03/01 06:55:25;;;;;;;32.25;15.85;;;-0.40;99.90;;;;;;5010102;28;20026;-75
2023/03/01 06:57:56;;;;;;;35.38;16.38;;;-0.40;99.90;;;;;;5006642;28;20033;-73
2023/03/01 07:00:22;;;;;;;32.42;16.08;;;-0.40;99.90;;;;;;5001677;28;20037;-75
2023/03/01 07:02:47;;;;;;;33.78;15.80;;;-0.30;99.90;;;;;;5008938;28;20092;-76
2023/03/01 07:05:13;;;;;;;35.25;16.27;;;-0.30;99.90;;;;;;5006982;28;20438;-73
2023/03/01 07:07:39;;;;;;;36.97;17.33;;;-0.30;99.90;;;;;;5005297;28;20041;-74
2023/03/01 07:10:05;;;;;;;35.67;16.20;;;-0.30;99.90;;;;;;5008397;28;20041;-73
2023/03/01 07:12:31;;;;;;;36.83;16.95;;;-0.30;99.90;;;;;;5006503;28;20116;-74
2023/03/01 07:14:56;;;;;;;32.22;16.38;;;-0.30;99.90;;;;;;5006072;28;20092;-75
2023/03/01 07:17:22;;;;;;;35.00;17.25;;;-0.30;99.90;;;;;;5014298;28;20035;-76
2023/03/01 07:19:47;;;;;;;40.38;17.00;;;-0.30;99.90;;;;;;5009334;28;20406;-76
2023/03/01 07:22:13;;;;;;;34.90;17.10;;;-0.20;99.90;;;;;;5006489;28;20022;-76
2023/03/01 07:24:40;;;;;;;34.47;16.15;;;-0.20;99.90;;;;;;5012359;28;20484;-77
2023/03/01 07:27:06;;;;;;;33.58;16.20;;;-0.20;99.90;;;;;;5008938;28;20025;-73
2023/03/01 07:29:31;;;;;;;33.83;15.98;;;-0.20;99.90;;;;;;5007576;28;20075;-75
2023/03/01 07:31:58;;;;;;;33.90;16.20;;;-0.20;99.90;;;;;;5009289;28;20037;-74
2023/03/01 07:34:23;;;;;;;31.73;16.23;;;-0.10;99.90;;;;;;5007689;28;20022;-74
2023/03/01 07:36:49;;;;;;;34.42;16.38;;;0.00;99.90;;;;;;5003886;28;20137;-75
2023/03/01 07:39:15;;;;;;;31.67;15.95;;;0.00;99.90;;;;;;5012325;28;20038;-75
2023/03/01 07:41:40;;;;;;;38.42;17.45;;;0.00;99.90;;;;;;5013532;28;20034;-75
2023/03/01 07:44:06;;;;;;;38.33;16.73;;;0.00;99.90;;;;;;5012195;28;20032;-76
2023/03/01 07:46:32;;;;;;;33.45;15.90;;;0.10;99.90;;;;;;5013578;28;20018;-75
2023/03/01 07:48:58;;;;;;;35.40;16.25;;;0.10;99.90;;;;;;5009110;28;20372;-74
2023/03/01 07:51:23;;;;;;;31.92;15.57;;;0.10;99.90;;;;;;5006072;28;20049;-74
2023/03/01 07:53:49;;;;;;;30.20;15.23;;;0.10;99.90;;;;;;5017516;28;20199;-74
2023/03/01 07:56:18;;;;;;;35.15;17.75;;;0.10;99.90;;;;;;5010072;28;20046;-75
2023/03/01 07:58:44;;;;;;;35.88;16.10;;;0.20;99.90;;;;;;5010954;28;20090;-74
2023/03/01 08:01:16;;;;;;;33.50;16.70;;;0.20;99.90;;;;;;5010857;28;20040;-74
2023/03/01 08:03:43;;;;;;;35.47;15.73;;;0.20;99.90;;;;;;5015159;28;20049;-75
2023/03/01 08:06:13;;;;;;;31.45;17.30;;;0.20;99.90;;;;;;5009637;28;20028;-75
2023/03/01 08:08:38;;;;;;;32.72;16.23;;;0.20;99.90;;;;;;5009474;28;20120;-75
2023/03/01 08:11:06;;;;;;;34.30;16.75;;;0.10;99.90;;;;;;5011606;28;20118;-74
2023/03/01 08:13:32;;;;;;;31.88;16.30;;;0.10;99.90;;;;;;5015279;28;20030;-74
2023/03/01 08:16:06;;;;;;;36.08;17.48;;;0.10;99.90;;;;;;5011075;28;20076;-74
2023/03/01 08:18:32;;;;;;;32.55;15.27;;;0.10;99.90;;;;;;5009115;28;20029;-75
2023/03/01 08:21:06;;;;;;;33.00;17.48;;;0.20;99.90;;;;;;5011115;28;20391;-75
2023/03/01 08:23:32;;;;;;;34.20;15.80;;;0.20;99.90;;;;;;5008582;28;20030;-75
2023/03/01 08:26:12;;;;;;;32.30;16.20;;;0.20;99.90;;;;;;5010848;28;20033;-75
2023/03/01 08:28:38;;;;;;;30.50;15.98;;;0.20;99.90;;;;;;5010022;28;20036;-75
2023/03/01 08:31:21;;;;;;;36.95;18.15;;;0.30;99.90;;;;;;5010413;28;20029;-75
2023/03/01 08:33:50;;;;;;;34.30;16.60;;;0.30;99.90;;;;;;5015562;28;20025;-75
2023/03/01 08:36:16;;;;;;;29.65;16.23;;;0.30;99.90;;;;;;5010264;28;20145;-75
2023/03/01 08:38:42;;;;;;;38.55;17.05;;;0.30;99.90;;;;;;5015892;28;20092;-75
2023/03/01 08:41:08;;;;;;;31.60;16.58;;;0.40;99.90;;;;;;5012211;28;20025;-75
2023/03/01 08:43:33;;;;;;;35.90;16.17;;;0.40;99.90;;;;;;5010210;28;20381;-75
2023/03/01 08:45:59;;;;;;;34.58;16.38;;;0.40;99.90;;;;;;5020204;28;20505;-74
2023/03/01 08:48:25;;;;;;;34.95;16.88;;;0.50;99.90;;;;;;5026035;28;20109;-75
2023/03/01 08:50:51;;;;;;;35.30;17.20;;;0.50;99.90;;;;;;5011805;28;20030;-75
2023/03/01 08:53:16;;;;;;;34.45;16.85;;;0.50;99.90;;;;;;5000506;28;20030;-75
2023/03/01 08:55:42;;;;;;;44.72;17.58;;;0.60;99.90;;;;;;5015115;28;20040;-74
2023/03/01 08:58:07;;;;;;;33.28;16.95;;;0.70;99.90;;;;;;5012357;28;20030;-74
2023/03/01 09:00:35;;;;;;;35.67;17.13;;;0.70;99.90;;;;;;5013457;28;20077;-73
2023/03/01 09:03:01;;;;;;;34.22;17.50;;;0.70;99.90;;;;;;5007046;28;20022;-72
2023/03/01 09:05:27;;;;;;;32.38;16.58;;;0.70;99.90;;;;;;5010239;28;20513;-73
2023/03/01 09:07:52;;;;;;;33.65;16.83;;;0.80;99.90;;;;;;5009637;28;20026;-72
2023/03/01 09:10:18;;;;;;;35.67;17.77;;;0.80;99.90;;;;;;5001637;28;20060;-75
2023/03/01 09:12:44;;;;;;;41.78;16.98;;;0.90;99.90;;;;;;5012827;28;20055;-76
2023/03/01 09:15:09;;;;;;;31.10;16.63;;;0.90;99.90;;;;;;5009967;28;20022;-75
2023/03/01 09:17:35;;;;;;;37.30;17.98;;;0.90;99.90;;;;;;5012151;28;20474;-75
2023/03/01 09:20:01;;;;;;;37.60;16.60;;;0.90;99.90;;;;;;5011154;28;20026;-75
2023/03/01 09:22:26;;;;;;;32.90;17.63;;;1.10;99.90;;;;;;5018395;28;20022;-75
2023/03/01 09:24:52;;;;;;;35.53;16.27;;;1.10;99.90;;;;;;5017614;28;20096;-75
2023/03/01 09:27:19;;;;;;;29.88;16.13;;;1.20;99.90;;;;;;5006140;28;20052;-75
2023/03/01 09:29:45;;;;;;;34.03;17.85;;;1.30;99.90;;;;;;5012565;28;20033;-75
2023/03/01 09:32:10;;;;;;;32.25;16.75;;;1.30;99.90;;;;;;5017742;28;20029;-75
2023/03/01 09:35:22;;;;;;;35.20;16.73;;;1.40;99.90;;;;;;5016785;28;20117;-75
2023/03/01 09:37:22;;;;;;;29.75;16.15;;;1.60;99.90;;;;;;5009201;28;20090;-75
2023/03/01 09:39:48;;;;;;;34.25;16.55;;;1.60;99.90;;;;;;5013140;28;20157;-75
2023/03/01 09:42:13;;;;;;;31.23;15.75;;;1.70;99.90;;;;;;4996539;28;20030;-75
2023/03/01 09:44:51;;;;;;;30.30;16.40;;;1.80;99.90;;;;;;5004732;28;20040;-75
2023/03/01 09:47:26;;;;;;;34.33;16.08;;;1.90;99.90;;;;;;5002661;28;20038;-75
2023/03/01 09:50:00;;;;;;;31.73;16.15;;;2.00;99.90;;;;;;5020923;28;20022;-75
2023/03/01 09:52:34;;;;;;;33.17;16.13;;;2.00;99.90;;;;;;5016779;28;20053;-75
2023/03/01 09:55:00;;;;;;;34.53;16.60;;;2.10;99.90;;;;;;5012312;28;20025;-75
2023/03/01 09:57:59;;;;;;;30.13;15.48;;;2.20;99.90;;;;;;5013197;28;21004;-75
2023/03/01 10:00:30;;;;;;;33.38;15.93;;;2.30;99.90;;;;;;5001248;28;20045;-74
2023/03/01 10:03:18;;;;;;;30.70;16.30;;;2.40;99.90;;;;;;5012766;28;20018;-75
2023/03/01 10:06:04;;;;;;;29.38;15.70;;;2.50;99.90;;;;;;5011535;28;20092;-74
2023/03/01 10:08:37;;;;;;;28.80;15.18;;;2.60;99.90;;;;;;5012389;28;20034;-75
2023/03/01 10:11:06;;;;;;;30.25;15.32;;;2.70;99.90;;;;;;5010937;28;20072;-75
2023/03/01 10:13:48;;;;;;;29.25;14.93;;;2.80;99.90;;;;;;5005883;28;20034;-75
2023/03/01 10:16:26;;;;;;;33.65;15.18;;;2.90;99.90;;;;;;5013517;28;20026;-75
2023/03/01 10:18:59;;;;;;;33.10;15.95;;;3.00;99.90;;;;;;5020518;28;20368;-75
2023/03/01 10:21:27;;;;;;;30.75;15.95;;;3.10;99.90;;;;;;5011137;28;20053;-75
2023/03/01 10:23:53;;;;;;;29.17;15.75;;;3.20;99.90;;;;;;5009495;28;20022;-74
2023/03/01 10:26:43;;;;;;;34.72;15.05;;;3.20;99.90;;;;;;5013505;28;20034;-75
2023/03/01 10:29:11;;;;;;;31.33;14.63;;;3.40;99.90;;;;;;5022985;28;20104;-76
2023/03/01 10:31:47;;;;;;;27.85;15.10;;;3.40;99.90;;;;;;5011515;28;20041;-76
2023/03/01 10:34:20;;;;;;;27.70;14.65;;;3.50;99.90;;;;;;5007766;28;20414;-75
2023/03/01 10:36:52;;;;;;;29.98;15.07;;;3.50;99.90;;;;;;5010946;28;20054;-75
2023/03/01 10:39:21;;;;;;;29.95;14.52;;;3.60;99.90;;;;;;5013134;28;20030;-76
2023/03/01 10:42:01;;;;;;;26.80;15.00;;;3.70;99.90;;;;;;5013667;28;20462;-76
2023/03/01 10:44:45;;;;;;;32.92;14.93;;;3.70;99.90;;;;;;5008308;28;20386;-76
2023/03/01 10:47:21;;;;;;;29.30;14.35;;;3.80;99.90;;;;;;5010800;28;20041;-76
2023/03/01 10:49:55;;;;;;;25.15;14.68;;;3.80;99.90;;;;;;5012368;28;20026;-76
2023/03/01 10:52:25;;;;;;;26.23;13.55;;;3.90;99.90;;;;;;5011047;28;20029;-76
2023/03/01 10:55:03;;;;;;;25.10;13.70;;;3.90;99.90;;;;;;5010665;28;20057;-76
2023/03/01 10:57:38;;;;;;;31.73;15.73;;;4.00;99.90;;;;;;5007444;28;20027;-76
2023/03/01 11:00:25;;;;;;;26.25;14.52;;;4.00;99.90;;;;;;5012289;28;20105;-76
2023/03/01 11:03:13;;;;;;;23.40;13.45;;;4.10;99.90;;;;;;5007655;28;20442;-76
2023/03/01 11:05:53;;;;;;;23.67;12.82;;;4.20;99.90;;;;;;5011511;28;20684;-76
2023/03/01 11:08:44;;;;;;;28.33;14.63;;;4.20;99.90;;;;;;5011907;28;20030;-76
2023/03/01 11:11:12;;;;;;;27.27;13.25;;;4.30;99.90;;;;;;5001475;28;20125;-76
2023/03/01 11:13:51;;;;;;;21.98;13.23;;;4.30;99.90;;;;;;5018411;28;20017;-76
2023/03/01 11:16:27;;;;;;;28.13;14.40;;;4.30;99.90;;;;;;5017444;28;20149;-76
2023/03/01 11:19:01;;;;;;;27.98;13.68;;;4.40;99.90;;;;;;5016267;28;20044;-76
2023/03/01 11:21:28;;;;;;;;;;;4.50;99.90;;;;;;5017028;28;20037;-76
2023/03/01 11:23:53;;;;;;;26.55;13.13;;;4.50;99.90;;;;;;5016619;28;19909;-76
2023/03/01 11:26:20;;;;;;;26.05;13.40;;;4.60;99.90;;;;;;5016357;28;20540;-76
2023/03/01 11:28:54;;;;;;;23.65;13.48;;;4.60;99.90;;;;;;5015838;28;20492;-76
2023/03/01 11:31:22;;;;;;;24.80;13.00;;;4.60;99.90;;;;;;5014918;28;20034;-76
2023/03/01 11:33:48;;;;;;;22.63;12.70;;;4.60;99.90;;;;;;5018864;28;20682;-76
2023/03/01 11:36:19;;;;;;;24.80;14.13;;;4.60;99.90;;;;;;5019814;28;20108;-76
2023/03/01 11:38:46;;;;;;;26.20;14.75;;;4.70;99.90;;;;;;4999522;28;20105;-75
2023/03/01 11:41:21;;;;;;;28.92;13.60;;;4.80;99.90;;;;;;5015927;28;20026;-75
2023/03/01 11:44:02;;;;;;;24.52;13.65;;;4.80;99.90;;;;;;5016200;28;20018;-76
2023/03/01 11:46:31;;;;;;;22.88;12.82;;;4.80;99.90;;;;;;5016478;28;20030;-76
2023/03/01 11:49:05;;;;;;;23.90;13.90;;;4.90;99.90;;;;;;5015718;28;20025;-76
2023/03/01 11:52:11;;;;;;;24.77;13.50;;;4.90;99.90;;;;;;5023830;28;20061;-76
2023/03/01 11:54:42;;;;;;;24.35;13.38;;;4.90;99.90;;;;;;5021063;28;20595;-76
2023/03/01 11:57:44;;;;;;;22.95;12.93;;;5.00;99.90;;;;;;5001408;28;20060;-76
2023/03/01 12:00:22;;;;;;;26.33;13.25;;;5.10;99.90;;;;;;5014149;28;20028;-77
2023/03/01 12:02:56;;;;;;;28.33;13.70;;;5.10;99.90;;;;;;5003358;28;20028;-76
2023/03/01 12:05:36;;;;;;;27.40;14.27;;;5.10;99.80;;;;;;5011746;28;20526;-76
2023/03/01 12:08:23;;;;;;;27.13;13.95;;;5.20;99.60;;;;;;5015649;28;20032;-76
2023/03/01 12:11:03;;;;;;;24.83;12.95;;;5.30;99.50;;;;;;5016690;28;20030;-76
2023/03/01 12:13:53;;;;;;;24.90;13.13;;;5.20;99.20;;;;;;5033438;28;20076;-76
2023/03/01 12:16:31;;;;;;;26.13;13.95;;;5.30;99.40;;;;;;5024898;28;20029;-76
2023/03/01 12:19:31;;;;;;;24.65;13.60;;;5.30;99.30;;;;;;5013392;28;20037;-76
2023/03/01 12:22:17;;;;;;;26.17;13.65;;;5.30;99.30;;;;;;5013359;28;20379;-75
2023/03/01 12:25:00;;;;;;;24.63;13.98;;;5.30;99.20;;;;;;5014162;28;20033;-75
2023/03/01 12:27:43;;;;;;;28.20;13.65;;;5.30;99.10;;;;;;5015120;28;20018;-76
2023/03/01 12:30:30;;;;;;;24.53;12.97;;;5.40;99.10;;;;;;5014822;28;20022;-75
2023/03/01 12:33:25;;;;;;;23.63;13.52;;;5.30;99.20;;;;;;5029022;28;20025;-75
2023/03/01 12:36:05;;;;;;;25.83;13.82;;;5.30;99.30;;;;;;5005242;28;20038;-75
2023/03/01 12:38:48;;;;;;;22.98;13.73;;;5.40;99.30;;;;;;5014569;28;20025;-76
2023/03/01 12:41:32;;;;;;;25.13;13.93;;;5.50;98.90;;;;;;5015031;28;20113;-75
2023/03/01 12:44:03;;;;;;;;;;;5.50;99.10;;;;;;5014876;28;20454;-75
2023/03/01 12:46:58;;;;;;;22.40;12.35;;;5.60;98.90;;;;;;5013100;28;20293;-75
2023/03/01 12:49:31;;;;;;;23.80;12.70;;;5.60;99.00;;;;;;5013219;28;20034;-75